Latest Weather Observations for Mount Ginini

IDN60901

Issued at 8:24 pm EDT Thursday 18 December 2014 (issued every 10 minutes, with the page automatically refreshed every 10 minutes)

About weather observations | Map of Canberra area stations | Latest observations for Canberra area | Other Formats
Station Details ID: 070349 Name: MOUNT GININI AWS Lat: -35.53 Lon: 148.77 Height: 1760.0 m
Data from the previous 72 hours. | See also: Recent months at Mount Ginini
Date/Time
EDT
Tmp

°C
App
Tmp
°C
Dew
Point
°C
Rel
Hum
%
Delta-T

°C
Wind Press
QNH
hPa
Press
MSL
hPa
Rain
since
9 am
mm
Dir
 
Spd
km/h
Gust
km/h
Spd
kts
Gust
kts
18/08:00pm 11.7 5.6 -2.1 38 6.0 W 20 46 11 25 - - 0.0
18/07:30pm 12.5 6.4 -2.1 36 6.4 WSW 20 48 11 26 - - 0.0
18/07:00pm 13.7 6.5 -2.3 33 7.1 W 26 52 14 28 - - 0.0
18/06:30pm 15.1 10.1 -1.0 33 7.4 W 15 33 8 18 - - 0.0
18/06:00pm 14.6 7.8 -1.5 33 7.3 W 24 48 13 26 - - 0.0
18/05:30pm 15.7 9.6 0.7 36 7.2 W 22 46 12 25 - - 0.0
18/05:00pm 15.4 9.8 1.2 38 6.8 W 20 43 11 23 - - 0.0
18/04:30pm 15.1 9.9 2.6 43 6.2 WNW 19 39 10 21 - - 0.0
18/04:00pm 14.8 9.8 1.3 40 6.5 W 17 39 9 21 - - 0.0
18/03:30pm 15.7 10.8 4.1 46 5.9 WNW 19 43 10 23 - - 0.0
18/03:00pm 16.5 11.6 5.2 47 5.9 WNW 20 39 11 21 - - 0.0
18/02:30pm 16.5 11.2 2.9 40 6.8 WNW 20 37 11 20 - - 0.0
18/02:00pm 16.9 13.0 7.0 52 5.4 WNW 17 32 9 17 - - 0.0
18/01:30pm 16.1 11.9 3.9 44 6.2 W 15 32 8 17 - - 0.0
18/01:00pm 15.8 11.2 3.6 44 6.2 WNW 17 32 9 17 - - 0.0
18/12:30pm 15.6 10.8 2.4 41 6.5 WNW 17 35 9 19 - - 0.0
18/12:00pm 15.4 11.1 3.5 45 6.0 NW 15 28 8 15 - - 0.0
18/11:30am 14.0 10.5 3.5 49 5.2 NW 11 26 6 14 - - 0.0
18/11:00am 13.1 9.5 4.8 57 4.2 NW 13 32 7 17 - - 0.0
18/10:30am 12.2 8.5 4.7 60 3.8 WNW 13 22 7 12 - - 0.0
18/10:00am 11.5 7.7 3.8 59 3.8 W 13 24 7 13 - - 0.0
18/09:30am 11.4 7.9 3.7 59 3.8 W 11 19 6 10 - - 0.0
18/09:00am 10.1 6.1 0.4 51 4.4 W 11 20 6 11 - - 0.0
18/08:30am 9.7 5.3 0.6 53 4.1 W 13 24 7 13 - - 0.0
18/08:00am 9.1 5.0 -0.2 52 4.1 W 11 22 6 12 - - 0.0
18/07:30am 8.0 3.8 -1.0 53 3.9 WNW 11 22 6 12 - - 0.0
18/07:00am 6.8 2.3 -0.4 60 3.1 WNW 13 24 7 13 - - 0.0
18/06:30am 6.3 1.4 -0.4 62 2.9 WNW 15 24 8 13 - - 0.0
18/06:00am 5.4 0.7 1.1 74 1.9 WNW 15 22 8 12 - - 0.0
18/05:30am 4.9 0.4 4.2 95 0.3 NW 17 22 9 12 - - 0.0
18/05:00am 4.0 -0.2 3.7 98 0.1 NNW 15 24 8 13 - - 0.0
18/04:30am 4.0 0.5 3.7 98 0.1 N 11 20 6 11 - - 0.0
18/04:00am 4.2 1.2 3.9 98 0.1 N 9 17 5 9 - - 0.0
18/03:30am 4.3 1.3 4.0 98 0.1 NNE 9 15 5 8 - - 0.0
18/03:00am 4.6 1.6 4.3 98 0.1 NE 9 15 5 8 - - 0.0
18/02:30am 4.6 1.6 4.3 98 0.1 NNE 9 15 5 8 - - 0.0
18/02:00am 4.5 1.5 4.2 98 0.1 NE 9 15 5 8 - - 0.0
18/01:30am 4.7 1.8 4.4 98 0.1 NE 9 19 5 10 - - 0.0
18/01:00am 5.0 1.7 4.7 98 0.1 NE 11 15 6 8 - - 0.0
18/12:30am 5.1 1.8 4.8 98 0.1 NE 11 19 6 10 - - 0.0
18/12:00am 5.5 2.7 5.1 97 0.2 ENE 9 17 5 9 - - 0.0
 
Date/Time
EDT
Tmp

°C
App
Tmp
°C
Dew
Point
°C
Rel
Hum
%
Delta-T

°C
Wind Press
QNH
hPa
Press
MSL
hPa
Rain
since
9 am
mm
Dir
 
Spd
km/h
Gust
km/h
Spd
kts
Gust
kts
17/11:30pm 5.6 2.4 5.2 97 0.2 NE 11 22 6 12 - - 0.0
17/11:00pm 5.9 2.8 5.5 97 0.2 NNE 11 19 6 10 - - 0.0
17/10:30pm 6.2 3.2 5.8 97 0.2 NNE 11 20 6 11 - - 0.0
17/10:00pm 7.0 4.1 6.4 96 0.3 N 11 22 6 12 - - 0.0
17/09:30pm 7.4 4.5 6.7 95 0.4 NNE 11 20 6 11 - - 0.0
17/09:00pm 7.8 5.0 5.3 84 1.2 N 9 20 5 11 - - 0.0
17/08:30pm 9.8 4.7 -1.9 44 5.0 NW 15 24 8 13 - - 0.0
17/08:00pm 10.6 5.7 -0.8 45 5.1 NW 15 24 8 13 - - 0.0
17/07:30pm 12.5 8.4 -0.4 41 5.9 WNW 11 19 6 10 - - 0.0
17/07:00pm 13.3 8.8 0.0 40 6.1 WNW 13 22 7 12 - - 0.0
17/06:30pm 15.5 11.7 2.0 40 6.6 WNW 11 24 6 13 - - 0.0
17/06:00pm 16.2 12.8 1.9 38 7.0 NW 9 22 5 12 - - 0.0
17/05:30pm 16.4 13.0 2.1 38 7.1 NNW 9 20 5 11 - - 0.0
17/05:00pm 17.3 13.6 2.1 36 7.6 NW 11 24 6 13 - - 0.0
17/04:30pm 16.7 13.5 0.8 34 7.7 WNW 7 17 4 9 - - 0.0
17/04:00pm 16.8 13.3 -1.3 29 8.4 NW 7 15 4 8 - - 0.0
17/03:30pm 17.1 13.5 0.7 33 7.9 WNW 9 19 5 10 - - 0.0
17/03:00pm 16.9 13.3 0.5 33 7.9 W 9 22 5 12 - - 0.0
17/02:30pm 16.9 13.3 2.9 39 7.0 WNW 11 22 6 12 - - 0.0
17/02:00pm 17.1 13.5 2.7 38 7.2 NW 11 26 6 14 - - 0.0
17/01:30pm 17.0 14.0 4.0 42 6.7 WNW 9 26 5 14 - - 0.0
17/01:00pm 16.0 13.2 3.4 43 6.4 WNW 7 20 4 11 - - 0.0
17/12:30pm 14.9 12.1 1.8 41 6.4 WSW 6 15 3 8 - - 0.0
17/12:00pm 14.6 11.4 0.5 38 6.6 WSW 7 15 4 8 - - 0.0
17/11:30am 14.0 10.6 -0.4 37 6.6 NW 7 20 4 11 - - 0.0
17/11:00am 12.9 9.2 -2.6 34 6.7 W 7 13 4 7 - - 0.0
17/10:30am 12.9 9.2 -4.2 30 7.2 NW 6 9 3 5 - - 0.0
17/10:00am 12.0 8.0 -7.4 25 7.5 W 6 9 3 5 - - 0.0
17/09:30am 11.4 7.4 -7.9 25 7.4 WSW 6 9 3 5 - - 0.0
17/09:00am 11.1 6.9 -10.4 21 7.7 SSW 6 11 3 6 - - 0.4
17/08:30am 10.2 6.0 -10.0 23 7.2 SSW 6 11 3 6 - - 0.4
17/08:00am 9.3 5.0 -11.9 21 7.2 S 6 11 3 6 - - 0.4
17/07:30am 7.8 2.9 -11.5 24 6.5 SSW 9 17 5 9 - - 0.4
17/07:00am 6.8 2.0 -10.9 27 5.9 SW 9 17 5 9 - - 0.4
17/06:30am 6.1 0.5 -10.6 29 5.6 WSW 13 28 7 15 - - 0.4
17/06:00am 6.0 0.5 -9.8 31 5.4 SW 13 24 7 13 - - 0.4
17/05:30am 6.4 0.7 -7.9 35 5.1 WSW 15 26 8 14 - - 0.4
17/05:00am 6.9 0.3 -6.8 37 5.1 WSW 20 33 11 18 - - 0.4
17/04:30am 7.1 1.4 -3.7 46 4.3 SW 17 33 9 18 - - 0.4
17/04:00am 7.8 3.2 -1.4 52 3.9 SW 13 24 7 13 - - 0.4
17/03:30am 9.3 4.4 -0.8 49 4.4 W 15 28 8 15 - - 0.4
17/03:00am 10.1 4.5 -0.1 49 4.6 W 19 44 10 24 - - 0.4
17/02:30am 10.8 4.9 1.9 54 4.2 W 22 43 12 23 - - 0.4
17/02:04am 11.7 4.8 2.5 53 4.4 W 28 59 15 32 - - 0.4
17/02:00am 11.7 5.6 2.5 53 4.4 W 24 50 13 27 - - 0.4
17/01:51am 12.1 5.2 2.3 51 4.7 WSW 28 57 15 31 - - 0.4
17/01:30am 12.4 6.0 1.1 46 5.3 W 24 59 13 32 - - 0.4
17/01:07am 13.3 5.3 0.3 41 6.0 WSW 32 78 17 42 - - 0.4
17/01:00am 13.2 5.9 -0.1 40 6.1 W 28 56 15 30 - - 0.4
17/12:30am 13.6 5.9 -0.1 39 6.3 WSW 30 59 16 32 - - 0.4
17/12:03am 13.2 6.1 1.2 44 5.7 WSW 28 52 15 28 - - 0.4
17/12:00am 13.3 6.5 1.0 43 5.8 WSW 26 46 14 25 - - 0.4
 
Date/Time
EDT
Tmp

°C
App
Tmp
°C
Dew
Point
°C
Rel
Hum
%
Delta-T

°C
Wind Press
QNH
hPa
Press
MSL
hPa
Rain
since
9 am
mm
Dir
 
Spd
km/h
Gust
km/h
Spd
kts
Gust
kts
16/11:36pm 14.9 7.6 0.0 36 7.0 WSW 28 50 15 27 - - 0.4
16/11:30pm 15.0 8.0 -0.3 35 7.1 W 26 50 14 27 - - 0.4
16/11:00pm 15.2 9.0 -0.1 35 7.2 W 22 43 12 23 - - 0.4
16/10:30pm 15.3 9.5 -0.4 34 7.3 W 20 39 11 21 - - 0.4
16/10:00pm 15.5 9.9 0.1 35 7.3 WSW 19 39 10 21 - - 0.4
16/09:30pm 16.5 11.2 -0.7 31 8.0 WSW 17 39 9 21 - - 0.4
16/09:00pm 16.4 10.2 -0.3 32 7.9 WSW 22 44 12 24 - - 0.4
16/08:32pm 17.0 9.6 -0.7 30 8.3 WSW 28 57 15 31 - - 0.4
16/08:30pm 16.9 9.9 -0.8 30 8.3 WSW 26 57 14 31 - - 0.4
16/08:00pm 17.1 8.9 -1.1 29 8.5 W 32 59 17 32 - - 0.4
16/07:30pm 17.3 8.9 -1.4 28 8.7 W 33 56 18 30 - - 0.4
16/07:00pm 18.3 10.1 -1.0 27 9.1 W 32 61 17 33 - - 0.4
16/06:34pm 18.6 11.0 -1.8 25 9.5 W 28 70 15 38 - - 0.4
16/06:30pm 18.9 12.2 -1.0 26 9.4 W 24 44 13 24 - - 0.4
16/06:00pm 19.2 11.6 -1.8 24 9.8 W 28 69 15 37 - - 0.4
16/05:47pm 19.0 9.9 -3.2 22 10.1 W 35 82 19 44 - - 0.4
16/05:35pm 19.5 11.7 -3.4 21 10.4 W 28 56 15 30 - - 0.4
16/05:30pm 19.7 12.2 -4.5 19 10.8 W 26 50 14 27 - - 0.4
16/05:00pm 19.5 10.9 -4.0 20 10.5 W 32 65 17 35 - - 0.4
16/04:46pm 20.0 11.7 -1.7 23 10.2 W 32 80 17 43 - - 0.4
16/04:30pm 20.1 11.8 -1.7 23 10.3 W 32 54 17 29 - - 0.4
16/04:00pm 20.5 12.3 0.4 26 9.9 W 33 72 18 39 - - 0.4
16/03:30pm 20.3 12.6 2.2 30 9.2 W 32 72 17 39 - - 0.4
16/03:00pm 20.6 13.0 2.9 31 9.1 WNW 32 61 17 33 - - 0.4
16/02:30pm 20.9 14.0 4.5 34 8.7 WNW 30 54 16 29 - - 0.4
16/02:00pm 21.0 15.1 8.9 46 7.0 WNW 30 57 16 31 - - 0.4
16/01:30pm 20.3 14.4 9.2 49 6.4 WNW 30 56 16 30 - - 0.4
16/01:16pm 19.8 14.5 9.7 52 5.9 WNW 28 57 15 31 - - 0.4
16/01:00pm 19.5 15.2 12.0 62 4.5 WNW 26 46 14 25 - - 0.4
16/12:30pm 18.3 12.7 11.4 64 4.1 NW 32 52 17 28 - - 0.4
16/12:00pm 17.6 12.8 11.8 69 3.5 NW 28 48 15 26 - - 0.4
16/11:30am 16.1 11.1 10.8 71 3.1 NW 28 52 15 28 - - 0.4
16/11:00am 15.0 10.1 11.2 78 2.2 NNW 28 52 15 28 - - 0.4
16/10:51am 15.1 10.1 10.9 76 2.4 NNW 28 52 15 28 - - 0.4
16/10:30am 14.7 9.7 9.7 72 2.8 N 26 48 14 26 - - 0.4
16/10:00am 13.8 8.5 9.8 77 2.3 NNW 28 57 15 31 - - 0.4
16/09:30am 12.6 6.3 11.0 90 0.9 NNW 35 63 19 34 - - 0.4
16/09:05am 12.4 7.6 11.5 94 0.5 NNW 28 52 15 28 - - 0.0
16/09:00am 11.9 7.7 11.0 94 0.5 NNW 24 48 13 26 - - 3.2
16/08:36am 11.2 6.0 10.3 94 0.5 NNW 28 54 15 29 - - 3.2
16/08:30am 11.0 6.9 10.1 94 0.5 NNW 22 44 12 24 - - 3.2
16/08:00am 11.3 6.9 10.4 94 0.5 NNW 24 44 13 24 - - 2.6
16/07:30am 11.2 7.2 10.3 94 0.5 NNW 22 46 12 25 - - 2.6
16/07:00am 10.5 7.2 9.6 94 0.5 WNW 17 33 9 18 - - 2.2
16/06:30am 12.3 8.1 8.4 77 2.1 N 20 41 11 22 - - 1.8
16/06:00am 11.6 8.0 10.0 90 0.9 N 19 33 10 18 - - 1.8
16/05:30am 11.5 7.7 9.9 90 0.9 N 20 39 11 21 - - 1.8
16/05:00am 11.7 7.9 9.8 88 1.1 NNE 20 32 11 17 - - 1.8
16/04:30am 11.6 8.5 10.2 91 0.8 NNE 17 28 9 15 - - 1.8
16/04:00am 11.5 8.0 8.7 83 1.5 NE 17 28 9 15 - - 1.8
16/03:30am 12.0 8.4 9.7 86 1.3 NNE 19 32 10 17 - - 1.8
16/03:00am 11.5 8.4 10.4 93 0.6 NNE 17 28 9 15 - - 1.8
16/02:30am 11.1 8.4 10.2 94 0.5 NNE 15 24 8 13 - - 1.8
16/02:00am 11.1 8.0 10.2 94 0.5 NW 17 28 9 15 - - 1.8
16/01:30am 11.3 7.9 10.4 94 0.5 NE 19 26 10 14 - - 1.2
16/01:00am 11.3 7.9 10.4 94 0.5 NE 19 32 10 17 - - 1.2
16/12:30am 11.2 8.2 10.6 96 0.3 NNE 17 26 9 14 - - 1.2
16/12:00am 11.4 8.4 10.8 96 0.3 NNE 17 30 9 16 - - 1.2
 
Date/Time
EDT
Tmp

°C
App
Tmp
°C
Dew
Point
°C
Rel
Hum
%
Delta-T

°C
Wind Press
QNH
hPa
Press
MSL
hPa
Rain
since
9 am
mm
Dir
 
Spd
km/h
Gust
km/h
Spd
kts
Gust
kts
15/11:30pm 11.8 9.7 11.0 95 0.5 NW 13 28 7 15 - - 0.6
15/11:00pm 13.0 10.0 11.9 93 0.6 NE 19 30 10 16 - - 0.0
15/10:30pm 13.3 10.0 11.0 86 1.3 NE 19 30 10 16 - - 0.0
15/10:00pm 13.7 10.3 9.0 73 2.6 ENE 17 30 9 16 - - 0.0
15/09:30pm 15.4 11.7 4.2 47 5.7 NNE 13 20 7 11 - - 0.0
15/09:00pm 15.3 12.2 3.8 46 5.8 N 9 20 5 11 - - 0.0
15/08:30pm 15.0 11.8 3.2 45 5.9 NNW 9 17 5 9 - - 0.0

Latest Capital City Observations: Canberra | Sydney | Melbourne | Brisbane | Adelaide | Perth | Hobart | Darwin

Other Formats:

Comma delimited format used in spreadsheet applications
http://www.bom.gov.au/fwo/IDN60903/IDN60903.95925.axf

JavaScript Object Notation format (JSON) in row-major order
http://www.bom.gov.au/fwo/IDN60903/IDN60903.95925.json